sensor_id;sensor_type;location;lat;lon;timestamp;pressure;altitude;pressure_sealevel;temperature;humidity
64544;BME280;50936;51.660;5.616;2023-06-24T00:02:18;102069.47;;;29.94;44.79
64544;BME280;50936;51.660;5.616;2023-06-24T00:04:45;102064.75;;;29.94;45.05
64544;BME280;50936;51.660;5.616;2023-06-24T00:07:11;102063.06;;;29.93;44.60
64544;BME280;50936;51.660;5.616;2023-06-24T00:09:38;102074.19;;;29.93;44.64
64544;BME280;50936;51.660;5.616;2023-06-24T00:12:06;102068.63;;;29.93;44.93
64544;BME280;50936;51.660;5.616;2023-06-24T00:14:33;102071.63;;;29.92;44.89
64544;BME280;50936;51.660;5.616;2023-06-24T00:17:03;102060.47;;;29.92;44.72
64544;BME280;50936;51.660;5.616;2023-06-24T00:19:31;102065.84;;;29.93;44.95
64544;BME280;50936;51.660;5.616;2023-06-24T00:21:58;102055.75;;;29.92;44.98
64544;BME280;50936;51.660;5.616;2023-06-24T00:24:27;102065.84;;;29.93;45.09
64544;BME280;50936;51.660;5.616;2023-06-24T00:26:55;102069.88;;;29.91;45.00
64544;BME280;50936;51.660;5.616;2023-06-24T00:29:26;102074.19;;;29.93;44.92
64544;BME280;50936;51.660;5.616;2023-06-24T00:31:54;102081.03;;;29.91;44.98
64544;BME280;50936;51.660;5.616;2023-06-24T00:34:22;102085.34;;;29.93;44.89
64544;BME280;50936;51.660;5.616;2023-06-24T00:36:51;102098.19;;;29.94;44.83
64544;BME280;50936;51.660;5.616;2023-06-24T00:39:18;102095.41;;;29.94;44.86
64544;BME280;50936;51.660;5.616;2023-06-24T00:41:45;102096.47;;;29.93;44.95
64544;BME280;50936;51.660;5.616;2023-06-24T00:44:12;102102.03;;;29.93;44.59
64544;BME280;50936;51.660;5.616;2023-06-24T00:46:40;102110.19;;;29.95;44.70
64544;BME280;50936;51.660;5.616;2023-06-24T00:49:06;102114.03;;;29.94;44.98
64544;BME280;50936;51.660;5.616;2023-06-24T00:51:34;102110.41;;;29.93;44.97
64544;BME280;50936;51.660;5.616;2023-06-24T00:54:02;102114.03;;;29.94;44.54
64544;BME280;50936;51.660;5.616;2023-06-24T00:56:32;102114.25;;;29.92;44.59
64544;BME280;50936;51.660;5.616;2023-06-24T00:59:01;102105.19;;;30.25;43.87
64544;BME280;50936;51.660;5.616;2023-06-24T01:01:33;102093.94;;;29.99;44.77
64544;BME280;50936;51.660;5.616;2023-06-24T01:04:03;102099.91;;;29.96;44.90
64544;BME280;50936;51.660;5.616;2023-06-24T01:06:31;102085.34;;;29.93;44.67
64544;BME280;50936;51.660;5.616;2023-06-24T01:09:00;102085.34;;;29.93;44.89
64544;BME280;50936;51.660;5.616;2023-06-24T01:11:30;102087.25;;;29.93;44.58
64544;BME280;50936;51.660;5.616;2023-06-24T01:13:57;102094.75;;;29.92;44.56
64544;BME280;50936;51.660;5.616;2023-06-24T01:17:11;102092.28;;;30.11;44.73
64544;BME280;50936;51.660;5.616;2023-06-24T01:28:40;102072.97;;;30.09;44.79
64544;BME280;50936;51.660;5.616;2023-06-24T01:37:15;102077.63;;;29.96;44.57
64544;BME280;50936;51.660;5.616;2023-06-24T01:42:42;102071.81;;;29.90;44.95
64544;BME280;50936;51.660;5.616;2023-06-24T01:45:16;102070.34;;;29.94;44.77
64544;BME280;50936;51.660;5.616;2023-06-24T01:47:49;102069.03;;;29.90;44.59
64544;BME280;50936;51.660;5.616;2023-06-24T01:50:26;102063.47;;;29.90;44.71
64544;BME280;50936;51.660;5.616;2023-06-24T01:53:01;102069.03;;;29.90;45.14
64544;BME280;50936;51.660;5.616;2023-06-24T01:55:33;102060.03;;;29.88;45.19
64544;BME280;50936;51.660;5.616;2023-06-24T01:58:05;102064.53;;;29.89;44.77
64544;BME280;50936;51.660;5.616;2023-06-24T02:00:35;102066.44;;;29.89;45.14
64544;BME280;50936;51.660;5.616;2023-06-24T02:03:05;102061.06;;;29.87;45.20
64544;BME280;50936;51.660;5.616;2023-06-24T02:05:34;102061.75;;;29.89;44.79
64544;BME280;50936;51.660;5.616;2023-06-24T02:08:08;102060.69;;;29.90;44.83
64544;BME280;50936;51.660;5.616;2023-06-24T02:10:38;102058.28;;;29.87;44.65
64544;BME280;50936;51.660;5.616;2023-06-24T02:13:07;102060.03;;;29.88;44.62
64544;BME280;50936;51.660;5.616;2023-06-24T02:15:36;102055.50;;;29.87;44.58
64544;BME280;50936;51.660;5.616;2023-06-24T02:18:07;102056.59;;;29.86;44.76
64544;BME280;50936;51.660;5.616;2023-06-24T02:20:38;102059.56;;;29.85;44.56
64544;BME280;50936;51.660;5.616;2023-06-24T02:23:08;102065.16;;;29.85;44.92
64544;BME280;50936;51.660;5.616;2023-06-24T02:25:38;102063.22;;;29.85;44.79
64544;BME280;50936;51.660;5.616;2023-06-24T02:28:07;102060.44;;;29.85;44.44
64544;BME280;50936;51.660;5.616;2023-06-24T02:30:37;102058.72;;;29.84;44.84
64544;BME280;50936;51.660;5.616;2023-06-24T02:33:05;102043.06;;;29.83;44.50
64544;BME280;50936;51.660;5.616;2023-06-24T02:35:33;102051.41;;;29.83;44.70
64544;BME280;50936;51.660;5.616;2023-06-24T02:38:01;102047.59;;;29.84;44.36
64544;BME280;50936;51.660;5.616;2023-06-24T02:40:29;102052.06;;;29.85;44.57
64544;BME280;50936;51.660;5.616;2023-06-24T02:42:58;102041.13;;;29.84;44.73
64544;BME280;50936;51.660;5.616;2023-06-24T02:45:26;102053.16;;;29.84;44.36
64544;BME280;50936;51.660;5.616;2023-06-24T02:47:55;102048.00;;;29.81;44.59
64544;BME280;50936;51.660;5.616;2023-06-24T02:50:25;102053.34;;;29.83;44.41
64544;BME280;50936;51.660;5.616;2023-06-24T02:52:53;102052.72;;;29.81;44.62
64544;BME280;50936;51.660;5.616;2023-06-24T02:55:26;102055.28;;;29.82;44.14
64544;BME280;50936;51.660;5.616;2023-06-24T02:57:59;102051.81;;;29.80;44.32
64544;BME280;50936;51.660;5.616;2023-06-24T03:00:31;102058.28;;;29.81;44.53
64544;BME280;50936;51.660;5.616;2023-06-24T03:03:24;102061.06;;;29.81;43.95
64544;BME280;50936;51.660;5.616;2023-06-24T03:05:54;102069.41;;;29.81;43.94
64544;BME280;50936;51.660;5.616;2023-06-24T03:08:25;102068.09;;;29.77;44.47
64544;BME280;50936;51.660;5.616;2023-06-24T03:10:55;102070.22;;;29.74;44.06
64544;BME280;50936;51.660;5.616;2023-06-24T03:13:25;102063.38;;;29.77;44.11
64544;BME280;50936;51.660;5.616;2023-06-24T03:16:14;102065.53;;;29.75;44.25
64544;BME280;50936;51.660;5.616;2023-06-24T03:18:51;102065.31;;;29.77;44.34
64544;BME280;50936;51.660;5.616;2023-06-24T03:21:19;102063.78;;;29.74;44.38
64544;BME280;50936;51.660;5.616;2023-06-24T03:23:48;102060.31;;;29.72;44.25
64544;BME280;50936;51.660;5.616;2023-06-24T03:26:15;102068.69;;;29.72;44.35
64544;BME280;50936;51.660;5.616;2023-06-24T03:28:42;102064.16;;;29.71;44.24
64544;BME280;50936;51.660;5.616;2023-06-24T03:31:14;102065.25;;;29.70;44.27
64544;BME280;50936;51.660;5.616;2023-06-24T03:33:44;102070.59;;;29.71;43.80
64544;BME280;50936;51.660;5.616;2023-06-24T03:36:14;102069.72;;;29.71;44.27
64544;BME280;50936;51.660;5.616;2023-06-24T03:38:43;102069.72;;;29.71;44.13
64544;BME280;50936;51.660;5.616;2023-06-24T03:41:10;102066.28;;;29.69;43.97
64544;BME280;50936;51.660;5.616;2023-06-24T03:43:37;102063.50;;;29.69;43.70
64544;BME280;50936;51.660;5.616;2023-06-24T03:46:04;102069.06;;;29.69;43.69
64544;BME280;50936;51.660;5.616;2023-06-24T03:48:31;102068.22;;;29.68;44.01
64544;BME280;50936;51.660;5.616;2023-06-24T03:50:58;102071.84;;;29.69;43.94
64544;BME280;50936;51.660;5.616;2023-06-24T03:53:26;102074.00;;;29.67;43.97
64544;BME280;50936;51.660;5.616;2023-06-24T03:55:54;102071.41;;;29.65;44.01
64544;BME280;50936;51.660;5.616;2023-06-24T03:58:21;102072.28;;;29.66;43.90
64544;BME280;50936;51.660;5.616;2023-06-24T04:00:48;102081.69;;;29.65;44.02
64544;BME280;50936;51.660;5.616;2023-06-24T04:03:16;102081.69;;;29.65;43.52
64544;BME280;50936;51.660;5.616;2023-06-24T04:05:46;102080.19;;;29.62;43.26
64544;BME280;50936;51.660;5.616;2023-06-24T04:08:13;102083.81;;;29.63;43.28
64544;BME280;50936;51.660;5.616;2023-06-24T04:10:39;102078.44;;;29.61;43.47
64544;BME280;50936;51.660;5.616;2023-06-24T04:13:11;102071.38;;;29.59;43.41
64544;BME280;50936;51.660;5.616;2023-06-24T04:15:38;102075.00;;;29.59;43.01
64544;BME280;50936;51.660;5.616;2023-06-24T04:18:05;102080.59;;;29.59;43.29
64544;BME280;50936;51.660;5.616;2023-06-24T04:20:32;102079.72;;;29.59;43.25
64544;BME280;50936;51.660;5.616;2023-06-24T04:23:04;102081.03;;;29.91;42.51
64544;BME280;50936;51.660;5.616;2023-06-24T04:25:34;102085.94;;;29.61;42.62
64544;BME280;50936;51.660;5.616;2023-06-24T04:28:03;102082.50;;;29.59;43.10
64544;BME280;50936;51.660;5.616;2023-06-24T04:30:32;102077.34;;;29.55;42.98
64544;BME280;50936;51.660;5.616;2023-06-24T04:33:03;102083.75;;;29.56;42.65
64544;BME280;50936;51.660;5.616;2023-06-24T04:35:30;102086.75;;;29.54;42.75
64544;BME280;50936;51.660;5.616;2023-06-24T04:37:57;102076.69;;;29.53;42.89
64544;BME280;50936;51.660;5.616;2023-06-24T04:40:24;102080.31;;;29.54;42.40
64544;BME280;50936;51.660;5.616;2023-06-24T04:42:51;102077.34;;;29.55;42.38
64544;BME280;50936;51.660;5.616;2023-06-24T04:45:18;102085.69;;;29.55;42.35
64544;BME280;50936;51.660;5.616;2023-06-24T04:47:45;102085.88;;;29.54;42.33
64544;BME280;50936;51.660;5.616;2023-06-24T04:50:12;102092.31;;;29.54;42.67
64544;BME280;50936;51.660;5.616;2023-06-24T04:52:39;102086.75;;;29.54;42.24
64544;BME280;50936;51.660;5.616;2023-06-24T04:55:06;102093.19;;;29.55;42.46
64544;BME280;50936;51.660;5.616;2023-06-24T04:57:33;102094.91;;;29.56;42.36
64544;BME280;50936;51.660;5.616;2023-06-24T05:00:04;102092.31;;;29.54;42.50
64544;BME280;50936;51.660;5.616;2023-06-24T05:02:32;102089.53;;;29.54;42.11
64544;BME280;50936;51.660;5.616;2023-06-24T05:04:59;102092.31;;;29.54;42.22
64544;BME280;50936;51.660;5.616;2023-06-24T05:07:26;102092.31;;;29.54;42.45
64544;BME280;50936;51.660;5.616;2023-06-24T05:09:53;102085.88;;;29.54;41.92
64544;BME280;50936;51.660;5.616;2023-06-24T05:12:20;102087.97;;;29.45;41.94
64544;BME280;50936;51.660;5.616;2023-06-24T05:14:51;102092.22;;;29.41;41.89
64544;BME280;50936;51.660;5.616;2023-06-24T05:17:21;102085.47;;;29.29;41.68
64544;BME280;50936;51.660;5.616;2023-06-24T05:19:48;102083.91;;;29.20;41.69
64544;BME280;50936;51.660;5.616;2023-06-24T05:22:15;102074.38;;;29.07;41.51
64544;BME280;50936;51.660;5.616;2023-06-24T05:24:41;102080.69;;;29.01;41.77
64544;BME280;50936;51.660;5.616;2023-06-24T05:27:08;102080.19;;;28.91;41.63
64544;BME280;50936;51.660;5.616;2023-06-24T05:29:35;102093.81;;;28.86;42.11
64544;BME280;50936;51.660;5.616;2023-06-24T05:32:03;102089.06;;;28.79;42.01
64544;BME280;50936;51.660;5.616;2023-06-24T05:34:30;102091.56;;;28.74;41.95
64544;BME280;50936;51.660;5.616;2023-06-24T05:36:58;102093.69;;;28.72;42.04
64544;BME280;50936;51.660;5.616;2023-06-24T05:39:24;102089.56;;;28.68;42.14
64544;BME280;50936;51.660;5.616;2023-06-24T05:41:52;102086.78;;;28.68;42.34
64544;BME280;50936;51.660;5.616;2023-06-24T05:44:19;102087.84;;;28.67;42.17
64544;BME280;50936;51.660;5.616;2023-06-24T05:46:47;102088.03;;;28.66;42.43
64544;BME280;50936;51.660;5.616;2023-06-24T05:49:14;102092.75;;;28.65;42.56
64544;BME280;50936;51.660;5.616;2023-06-24T05:51:41;102100.44;;;28.63;42.36
64544;BME280;50936;51.660;5.616;2023-06-24T05:54:08;102093.78;;;28.64;42.60
64544;BME280;50936;51.660;5.616;2023-06-24T05:56:35;102091.41;;;28.61;42.46
64544;BME280;50936;51.660;5.616;2023-06-24T05:59:05;102096.09;;;28.60;42.34
64544;BME280;50936;51.660;5.616;2023-06-24T06:01:32;102090.75;;;28.59;42.44
64544;BME280;50936;51.660;5.616;2023-06-24T06:04:02;102088.84;;;28.59;42.54
64544;BME280;50936;51.660;5.616;2023-06-24T06:06:28;102095.25;;;28.60;42.69
64544;BME280;50936;51.660;5.616;2023-06-24T06:08:56;102096.97;;;28.61;42.58
64544;BME280;50936;51.660;5.616;2023-06-24T06:11:23;102095.63;;;28.57;42.60
64544;BME280;50936;51.660;5.616;2023-06-24T06:13:50;102094.59;;;28.58;42.34
64544;BME280;50936;51.660;5.616;2023-06-24T06:16:19;102099.06;;;28.59;42.18
64544;BME280;50936;51.660;5.616;2023-06-24T06:18:46;102101.19;;;28.57;42.14
64544;BME280;50936;51.660;5.616;2023-06-24T06:21:13;102101.19;;;28.57;42.45
64544;BME280;50936;51.660;5.616;2023-06-24T06:23:40;102103.31;;;28.55;42.36
64544;BME280;50936;51.660;5.616;2023-06-24T06:26:06;102098.84;;;28.54;42.21
64544;BME280;50936;51.660;5.616;2023-06-24T06:28:33;102096.91;;;28.54;41.98
64544;BME280;50936;51.660;5.616;2023-06-24T06:31:00;102105.06;;;28.56;42.41
64544;BME280;50936;51.660;5.616;2023-06-24T06:33:27;102100.53;;;28.55;42.21
64544;BME280;50936;51.660;5.616;2023-06-24T06:35:54;102102.94;;;28.58;42.11
64544;BME280;50936;51.660;5.616;2023-06-24T06:38:21;102106.38;;;28.60;42.33
64544;BME280;50936;51.660;5.616;2023-06-24T06:40:47;102099.06;;;28.59;41.94
64544;BME280;50936;51.660;5.616;2023-06-24T06:43:14;102102.94;;;28.58;41.98
64544;BME280;50936;51.660;5.616;2023-06-24T06:45:41;102105.06;;;28.56;42.14
64544;BME280;50936;51.660;5.616;2023-06-24T06:48:08;102100.53;;;28.55;42.22
64544;BME280;50936;51.660;5.616;2023-06-24T06:50:35;102106.09;;;28.55;42.15
64544;BME280;50936;51.660;5.616;2023-06-24T06:53:02;102112.72;;;28.54;41.96
64544;BME280;50936;51.660;5.616;2023-06-24T06:55:29;102121.06;;;28.54;41.82
64544;BME280;50936;51.660;5.616;2023-06-24T06:57:56;102111.00;;;28.53;42.09
64544;BME280;50936;51.660;5.616;2023-06-24T07:00:23;102122.78;;;28.55;41.71
64544;BME280;50936;51.660;5.616;2023-06-24T07:02:50;102125.53;;;28.55;41.62
64544;BME280;50936;51.660;5.616;2023-06-24T07:05:17;102129.41;;;28.54;41.61
64544;BME280;50936;51.660;5.616;2023-06-24T07:07:44;102133.22;;;28.53;41.50
64544;BME280;50936;51.660;5.616;2023-06-24T07:10:12;102132.53;;;28.51;41.46
64544;BME280;50936;51.660;5.616;2023-06-24T07:12:39;102138.47;;;28.48;41.66
64544;BME280;50936;51.660;5.616;2023-06-24T07:15:06;102139.91;;;28.44;41.61
64544;BME280;50936;51.660;5.616;2023-06-24T07:17:37;102136.47;;;28.41;41.37
64544;BME280;50936;51.660;5.616;2023-06-24T07:20:05;102132.84;;;28.41;41.61
64544;BME280;50936;51.660;5.616;2023-06-24T07:22:32;102136.47;;;28.41;41.55
64544;BME280;50936;51.660;5.616;2023-06-24T07:24:59;102139.91;;;28.44;41.37
64544;BME280;50936;51.660;5.616;2023-06-24T07:27:26;102135.41;;;28.42;41.25
64544;BME280;50936;51.660;5.616;2023-06-24T07:29:53;102128.13;;;28.41;41.17
64544;BME280;50936;51.660;5.616;2023-06-24T07:32:20;102134.25;;;28.37;40.93
64544;BME280;50936;51.660;5.616;2023-06-24T07:34:47;102136.56;;;28.33;40.63
64544;BME280;50936;51.660;5.616;2023-06-24T07:37:14;102137.44;;;28.34;40.93
64544;BME280;50936;51.660;5.616;2023-06-24T07:39:50;102133.78;;;28.33;41.02
64544;BME280;50936;51.660;5.616;2023-06-24T07:42:17;102143.66;;;28.36;41.20
64544;BME280;50936;51.660;5.616;2023-06-24T07:44:48;102138.97;;;28.36;41.59
64544;BME280;50936;51.660;5.616;2023-06-24T07:47:17;102132.63;;;28.42;41.60
64544;BME280;50936;51.660;5.616;2023-06-24T07:49:45;102138.47;;;28.48;41.33
64544;BME280;50936;51.660;5.616;2023-06-24T07:52:12;102126.97;;;28.51;41.56
64544;BME280;50936;51.660;5.616;2023-06-24T07:54:38;102138.41;;;28.56;41.29
64544;BME280;50936;51.660;5.616;2023-06-24T07:57:05;102134.72;;;28.55;41.19
64544;BME280;50936;51.660;5.616;2023-06-24T07:59:32;102145.66;;;28.57;40.82
64544;BME280;50936;51.660;5.616;2023-06-24T08:01:59;102143.97;;;28.56;40.82
64544;BME280;50936;51.660;5.616;2023-06-24T08:04:26;102137.13;;;28.58;40.85
64544;BME280;50936;51.660;5.616;2023-06-24T08:06:53;102128.59;;;28.60;41.07
64544;BME280;50936;51.660;5.616;2023-06-24T08:09:20;102140.75;;;28.59;40.55
64544;BME280;50936;51.660;5.616;2023-06-24T08:11:47;102138.47;;;28.63;40.55
64544;BME280;50936;51.660;5.616;2023-06-24T08:14:14;102122.66;;;28.63;40.80
64544;BME280;50936;51.660;5.616;2023-06-24T08:16:41;102127.44;;;28.69;40.86
64544;BME280;50936;51.660;5.616;2023-06-24T08:19:08;102126.81;;;28.74;40.68
64544;BME280;50936;51.660;5.616;2023-06-24T08:21:35;102123.00;;;28.75;40.75
64544;BME280;50936;51.660;5.616;2023-06-24T08:24:04;102122.81;;;28.76;40.47
64544;BME280;50936;51.660;5.616;2023-06-24T08:26:32;102123.28;;;28.80;40.34
64544;BME280;50936;51.660;5.616;2023-06-24T08:28:59;102118.19;;;28.84;40.12
64544;BME280;50936;51.660;5.616;2023-06-24T08:31:30;102121.44;;;28.87;39.91
64544;BME280;50936;51.660;5.616;2023-06-24T08:33:59;102122.56;;;28.93;39.57
64544;BME280;50936;51.660;5.616;2023-06-24T08:36:28;102116.16;;;28.92;39.43
64544;BME280;50936;51.660;5.616;2023-06-24T08:38:56;102125.16;;;28.94;39.31
64544;BME280;50936;51.660;5.616;2023-06-24T08:41:23;102114.50;;;28.98;39.17
64544;BME280;50936;51.660;5.616;2023-06-24T08:43:53;102114.06;;;29.01;38.91
64544;BME280;50936;51.660;5.616;2023-06-24T08:46:24;102109.88;;;29.05;38.77
64544;BME280;50936;51.660;5.616;2023-06-24T08:49:02;102118.06;;;29.13;38.92
64544;BME280;50936;51.660;5.616;2023-06-24T08:51:39;102103.50;;;29.11;39.07
64544;BME280;50936;51.660;5.616;2023-06-24T08:54:09;102114.63;;;29.11;38.89
64544;BME280;50936;51.660;5.616;2023-06-24T08:56:37;102106.94;;;29.13;38.58
64544;BME280;50936;51.660;5.616;2023-06-24T08:59:08;102112.13;;;29.16;38.71
64544;BME280;50936;51.660;5.616;2023-06-24T09:01:35;102108.47;;;29.16;38.15
64544;BME280;50936;51.660;5.616;2023-06-24T09:04:02;102103.78;;;29.16;38.39
64544;BME280;50936;51.660;5.616;2023-06-24T09:06:33;102109.63;;;29.22;38.29
64544;BME280;50936;51.660;5.616;2023-06-24T09:09:00;102105.75;;;29.23;38.31
64544;BME280;50936;51.660;5.616;2023-06-24T09:11:28;102102.78;;;29.24;38.10
64544;BME280;50936;51.660;5.616;2023-06-24T09:13:59;102108.63;;;29.29;38.28
64544;BME280;50936;51.660;5.616;2023-06-24T09:16:26;102100.06;;;29.59;37.88
64544;BME280;50936;51.660;5.616;2023-06-24T09:18:53;102108.66;;;29.36;37.68
64544;BME280;50936;51.660;5.616;2023-06-24T09:21:27;102103.34;;;29.41;37.90
64544;BME280;50936;51.660;5.616;2023-06-24T09:23:58;102098.59;;;29.35;38.00
64544;BME280;50936;51.660;5.616;2023-06-24T09:26:26;102109.72;;;29.35;37.87
64544;BME280;50936;51.660;5.616;2023-06-24T09:28:54;102095.63;;;29.36;37.80
64544;BME280;50936;51.660;5.616;2023-06-24T09:31:23;102085.34;;;29.37;37.46
64544;BME280;50936;51.660;5.616;2023-06-24T09:33:50;102079.78;;;29.37;37.35
64544;BME280;50936;51.660;5.616;2023-06-24T09:36:17;102082.16;;;29.40;37.45
64544;BME280;50936;51.660;5.616;2023-06-24T09:38:45;102073.81;;;29.40;37.49
64544;BME280;50936;51.660;5.616;2023-06-24T09:41:13;102080.03;;;29.42;37.71
64544;BME280;50936;51.660;5.616;2023-06-24T09:43:42;102086.25;;;29.44;37.95
64544;BME280;50936;51.660;5.616;2023-06-24T09:46:14;102078.97;;;29.43;37.85
64544;BME280;50936;51.660;5.616;2023-06-24T09:48:42;102081.53;;;29.45;37.75
64544;BME280;50936;51.660;5.616;2023-06-24T09:51:12;102076.44;;;29.48;37.92
64544;BME280;50936;51.660;5.616;2023-06-24T09:53:40;102071.72;;;29.49;37.81
64544;BME280;50936;51.660;5.616;2023-06-24T09:56:10;102064.06;;;29.51;37.79
64544;BME280;50936;51.660;5.616;2023-06-24T09:58:40;102067.69;;;29.51;37.71
64544;BME280;50936;51.660;5.616;2023-06-24T10:01:10;102074.75;;;29.54;37.62
64544;BME280;50936;51.660;5.616;2023-06-24T10:03:38;102075.84;;;29.53;38.14
64544;BME280;50936;51.660;5.616;2023-06-24T10:06:06;102072.81;;;29.54;37.59
64544;BME280;50936;51.660;5.616;2023-06-24T10:08:34;102070.03;;;29.54;37.79
64544;BME280;50936;51.660;5.616;2023-06-24T10:11:01;102072.63;;;29.56;37.45
64544;BME280;50936;51.660;5.616;2023-06-24T10:13:29;102067.94;;;29.56;37.52
64544;BME280;50936;51.660;5.616;2023-06-24T10:15:57;102071.38;;;29.59;37.59
64544;BME280;50936;51.660;5.616;2023-06-24T10:20:57;102064.09;;;29.58;37.90
64544;BME280;50936;51.660;5.616;2023-06-24T10:23:41;102071.47;;;29.72;37.67
64544;BME280;50936;51.660;5.616;2023-06-24T10:26:28;102068.47;;;29.73;37.09
64544;BME280;50936;51.660;5.616;2023-06-24T10:36:59;102054.38;;;29.75;37.57
64544;BME280;50936;51.660;5.616;2023-06-24T10:44:54;102053.66;;;29.66;37.80
64544;BME280;50936;51.660;5.616;2023-06-24T10:47:24;102053.44;;;29.68;37.68
64544;BME280;50936;51.660;5.616;2023-06-24T10:49:52;102055.16;;;29.69;37.58
64544;BME280;50936;51.660;5.616;2023-06-24T10:52:20;102055.16;;;29.69;37.34
64544;BME280;50936;51.660;5.616;2023-06-24T10:54:49;102048.63;;;29.77;37.27
64544;BME280;50936;51.660;5.616;2023-06-24T10:57:22;102042.16;;;29.76;37.24
64544;BME280;50936;51.660;5.616;2023-06-24T10:59:55;102050.53;;;29.76;37.70
64544;BME280;50936;51.660;5.616;2023-06-24T11:02:25;102038.91;;;29.72;37.35
64544;BME280;50936;51.660;5.616;2023-06-24T11:04:56;102041.53;;;29.74;37.37
64544;BME280;50936;51.660;5.616;2023-06-24T11:07:26;102035.94;;;29.74;37.47
64544;BME280;50936;51.660;5.616;2023-06-24T11:10:06;102044.09;;;29.75;37.67
64544;BME280;50936;51.660;5.616;2023-06-24T11:12:39;102042.16;;;29.76;37.63
64544;BME280;50936;51.660;5.616;2023-06-24T11:15:13;102034.06;;;29.81;37.67
64544;BME280;50936;51.660;5.616;2023-06-24T11:17:41;102030.84;;;29.78;37.54
64544;BME280;50936;51.660;5.616;2023-06-24T11:20:10;102032.75;;;29.77;37.33
64544;BME280;50936;51.660;5.616;2023-06-24T11:22:43;102021.88;;;29.82;37.52
64544;BME280;50936;51.660;5.616;2023-06-24T11:25:20;102027.91;;;29.86;37.72
64544;BME280;50936;51.660;5.616;2023-06-24T11:27:51;102029.16;;;29.83;37.53
64544;BME280;50936;51.660;5.616;2023-06-24T11:30:19;102035.81;;;29.82;37.50
64544;BME280;50936;51.660;5.616;2023-06-24T11:32:47;102017.56;;;29.80;37.81
64544;BME280;50936;51.660;5.616;2023-06-24T11:35:17;102016.31;;;29.82;37.87
64544;BME280;50936;51.660;5.616;2023-06-24T11:37:46;102025.31;;;29.84;37.74
64544;BME280;50936;51.660;5.616;2023-06-24T11:40:17;102027.91;;;29.86;37.34
64544;BME280;50936;51.660;5.616;2023-06-24T11:42:46;102016.75;;;29.86;37.39
64544;BME280;50936;51.660;5.616;2023-06-24T11:45:20;102016.53;;;29.87;37.84
64544;BME280;50936;51.660;5.616;2023-06-24T11:47:48;102017.59;;;29.86;37.47
64544;BME280;50936;51.660;5.616;2023-06-24T11:50:15;102019.31;;;29.87;37.72
64544;BME280;50936;51.660;5.616;2023-06-24T11:57:53;102015.47;;;29.88;37.66
64544;BME280;50936;51.660;5.616;2023-06-24T12:00:26;102009.91;;;29.88;37.65
64544;BME280;50936;51.660;5.616;2023-06-24T12:02:55;102006.06;;;29.89;37.91
64544;BME280;50936;51.660;5.616;2023-06-24T12:05:29;101996.22;;;29.93;37.63
64544;BME280;50936;51.660;5.616;2023-06-24T12:08:09;101995.78;;;29.97;37.67
64544;BME280;50936;51.660;5.616;2023-06-24T12:10:38;102002.00;;;29.92;37.94
64544;BME280;50936;51.660;5.616;2023-06-24T12:13:06;102005.63;;;29.92;37.76
64544;BME280;50936;51.660;5.616;2023-06-24T12:15:35;101999.22;;;29.92;37.97
64544;BME280;50936;51.660;5.616;2023-06-24T12:18:03;101995.34;;;29.93;37.96
64544;BME280;50936;51.660;5.616;2023-06-24T12:20:30;101988.72;;;29.94;38.43
64544;BME280;50936;51.660;5.616;2023-06-24T12:23:03;101988.50;;;29.96;38.09
64544;BME280;50936;51.660;5.616;2023-06-24T12:25:30;101988.50;;;29.96;38.67
64544;BME280;50936;51.660;5.616;2023-06-24T12:27:57;101985.72;;;29.96;38.66
64544;BME280;50936;51.660;5.616;2023-06-24T12:30:26;101980.81;;;29.98;38.47
64544;BME280;50936;51.660;5.616;2023-06-24T12:32:53;101978.88;;;29.98;38.56
64544;BME280;50936;51.660;5.616;2023-06-24T12:35:22;101980.81;;;29.98;38.98
64544;BME280;50936;51.660;5.616;2023-06-24T12:37:52;101987.34;;;30.31;38.04
64544;BME280;50936;51.660;5.616;2023-06-24T12:40:19;101980.84;;;30.04;38.41
64544;BME280;50936;51.660;5.616;2023-06-24T12:42:46;101980.19;;;30.02;38.68
64544;BME280;50936;51.660;5.616;2023-06-24T12:45:13;101970.94;;;30.02;39.05
64544;BME280;50936;51.660;5.616;2023-06-24T12:47:41;101969.25;;;30.01;38.85
64544;BME280;50936;51.660;5.616;2023-06-24T12:50:08;101971.16;;;30.00;39.30
64544;BME280;50936;51.660;5.616;2023-06-24T12:52:36;101973.75;;;30.02;39.34
64544;BME280;50936;51.660;5.616;2023-06-24T12:55:05;101972.88;;;30.01;39.37
64544;BME280;50936;51.660;5.616;2023-06-24T12:57:34;101967.13;;;30.03;39.43
64544;BME280;50936;51.660;5.616;2023-06-24T13:00:01;101963.25;;;30.04;39.38
64544;BME280;50936;51.660;5.616;2023-06-24T13:02:32;101964.97;;;30.05;39.02
64544;BME280;50936;51.660;5.616;2023-06-24T13:04:59;101967.75;;;30.05;39.20
64544;BME280;50936;51.660;5.616;2023-06-24T13:07:26;101965.81;;;30.05;39.29
64544;BME280;50936;51.660;5.616;2023-06-24T13:09:53;101960.25;;;30.05;39.65
64544;BME280;50936;51.660;5.616;2023-06-24T13:12:20;101961.13;;;30.06;39.23
64544;BME280;50936;51.660;5.616;2023-06-24T13:14:47;101960.25;;;30.05;39.31
64544;BME280;50936;51.660;5.616;2023-06-24T13:17:14;101963.69;;;30.07;39.19
64544;BME280;50936;51.660;5.616;2023-06-24T13:19:41;101962.84;;;30.07;39.40
64544;BME280;50936;51.660;5.616;2023-06-24T13:22:08;101960.69;;;30.09;39.64
64544;BME280;50936;51.660;5.616;2023-06-24T13:24:35;101964.56;;;30.08;39.72
64544;BME280;50936;51.660;5.616;2023-06-24T13:27:02;101955.34;;;30.07;39.75
64544;BME280;50936;51.660;5.616;2023-06-24T13:29:29;101946.97;;;30.07;39.41
64544;BME280;50936;51.660;5.616;2023-06-24T13:31:56;101943.97;;;30.09;39.27
64544;BME280;50936;51.660;5.616;2023-06-24T13:34:23;101944.84;;;30.09;39.43
64544;BME280;50936;51.660;5.616;2023-06-24T13:36:50;101947.84;;;30.08;39.88
64544;BME280;50936;51.660;5.616;2023-06-24T13:39:17;101952.97;;;30.11;39.39